Time;durP1;ratioP1;P1;durP2;ratioP2;P2;SDS_P1;SDS_P2;PMS_P1;PMS_P2;Temp;Humidity;BMP_temperature;BMP_pressure;BME280_temperature;BME280_humidity;BME280_pressure;Samples;Min_cycle;Max_cycle;Signal;HPM_P1;HPM_P2
2021/08/19 00:01:01;;;;;;;11.20;10.00;;;;;;;18.69;71.16;100061.38;5035059;28;20470;-61
2021/08/19 00:03:29;;;;;;;15.70;11.60;;;;;;;18.54;71.63;100064.00;5035950;28;20060;-61
2021/08/19 00:06:01;;;;;;;12.40;11.10;;;;;;;18.59;71.68;100060.84;5035054;28;20064;-61
2021/08/19 00:08:28;;;;;;;12.35;10.75;;;;;;;18.49;72.04;100058.66;5035404;28;20054;-61
2021/08/19 00:10:55;;;;;;;12.23;10.93;;;;;;;18.44;72.20;100053.34;5034658;28;20049;-61
2021/08/19 00:13:22;;;;;;;13.05;10.90;;;;;;;18.42;72.72;100050.09;5034038;28;20049;-61
2021/08/19 00:15:50;;;;;;;13.13;11.52;;;;;;;18.59;71.89;100052.38;5034605;28;20049;-61
2021/08/19 00:18:18;;;;;;;13.18;11.77;;;;;;;18.58;72.14;100039.47;5033949;28;20054;-61
2021/08/19 00:20:45;;;;;;;14.45;12.95;;;;;;;18.56;72.23;100055.13;5034597;28;20060;-61
2021/08/19 00:23:14;;;;;;;13.80;12.32;;;;;;;18.68;71.77;100043.63;5034732;28;20053;-61
2021/08/19 00:25:41;;;;;;;13.40;12.00;;;;;;;18.67;72.03;100042.03;5034143;28;20058;-61
2021/08/19 00:28:09;;;;;;;14.63;13.13;;;;;;;18.67;72.16;100050.50;5034667;28;20049;-61
2021/08/19 00:30:37;;;;;;;14.30;12.90;;;;;;;18.67;72.14;100045.66;5034949;28;20057;-61
2021/08/19 00:33:04;;;;;;;16.30;14.02;;;;;;;18.75;71.82;100040.09;5034286;28;20097;-61
2021/08/19 00:35:32;;;;;;;15.40;13.60;;;;;;;18.76;72.06;100039.72;5034564;28;20056;-61
2021/08/19 00:38:01;;;;;;;15.38;13.73;;;;;;;18.66;72.40;100034.75;5035117;28;20058;-60
2021/08/19 00:40:30;;;;;;;15.23;13.65;;;;;;;18.62;72.41;100037.50;5034281;28;20053;-61
2021/08/19 00:42:57;;;;;;;18.33;14.73;;;;;;;18.66;72.50;100035.53;5034302;28;20053;-60
2021/08/19 00:45:26;;;;;;;16.58;14.27;;;;;;;18.64;72.67;100035.13;5034210;28;20068;-59
2021/08/19 00:47:53;;;;;;;15.52;13.93;;;;;;;18.72;72.36;100029.59;5034398;28;20053;-60
2021/08/19 00:50:20;;;;;;;15.98;14.27;;;;;;;18.82;72.19;100021.31;5034547;28;20060;-58
2021/08/19 00:52:48;;;;;;;15.60;13.88;;;;;;;18.79;72.13;100024.06;5034347;28;20056;-58
2021/08/19 00:55:15;;;;;;;15.98;14.10;;;;;;;18.84;72.13;100023.75;5034069;28;20053;-60
2021/08/19 00:57:45;;;;;;;16.35;14.30;;;;;;;18.77;72.81;100027.28;5034306;28;20414;-60
2021/08/19 01:00:17;;;;;;;15.15;13.55;;;;;;;18.83;72.47;100020.09;5034236;28;20057;-61
2021/08/19 01:02:46;;;;;;;15.95;14.18;;;;;;;18.89;72.29;100020.59;5033971;28;20053;-62
2021/08/19 01:05:14;;;;;;;16.48;14.68;;;;;;;18.89;72.15;100029.06;5033974;28;20049;-61
2021/08/19 01:07:42;;;;;;;16.35;14.65;;;;;;;18.92;72.22;100025.50;5034257;28;20057;-61
2021/08/19 01:10:11;;;;;;;19.05;15.02;;;;;;;18.88;72.30;100032.25;5033555;28;20050;-61
2021/08/19 01:12:40;;;;;;;16.17;13.75;;;;;;;18.83;72.62;100033.41;5033827;28;20475;-61
2021/08/19 01:15:11;;;;;;;16.67;14.65;;;;;;;18.77;72.89;100023.59;5034043;28;20069;-61
2021/08/19 01:17:41;;;;;;;16.52;14.77;;;;;;;18.78;73.10;100017.63;5033944;28;20049;-61
2021/08/19 01:20:12;;;;;;;16.75;14.95;;;;;;;18.88;72.76;100021.81;5033395;28;20049;-61
2021/08/19 01:22:39;;;;;;;17.08;15.20;;;;;;;18.69;73.80;100021.88;5033695;28;20410;-61
2021/08/19 01:25:07;;;;;;;17.35;14.80;;;;;;;18.58;74.64;100019.75;5032706;28;20516;-61
2021/08/19 01:27:36;;;;;;;17.77;15.95;;;;;;;18.65;74.10;100028.28;5033966;28;20064;-61
2021/08/19 01:30:05;;;;;;;17.55;15.18;;;;;;;18.59;74.58;100024.16;5033587;28;20053;-61
2021/08/19 01:32:33;;;;;;;19.13;15.93;;;;;;;18.64;75.08;100023.03;5033608;28;20057;-61
2021/08/19 01:35:00;;;;;;;21.48;16.90;;;;;;;18.66;75.33;100027.09;5033687;28;20064;-61
2021/08/19 01:37:28;;;;;;;17.85;15.60;;;;;;;18.62;75.23;100031.06;5033870;28;20049;-61
2021/08/19 01:39:55;;;;;;;18.30;16.40;;;;;;;18.65;74.93;100028.28;5017018;28;20061;-62
2021/08/19 01:42:22;;;;;;;18.15;15.70;;;;;;;18.70;74.72;100035.59;5025393;28;20053;-62
2021/08/19 01:44:51;;;;;;;16.70;14.68;;;;;;;18.70;74.94;100035.59;5033477;28;20430;-61
2021/08/19 01:47:21;;;;;;;18.52;16.17;;;;;;;18.56;75.38;100024.94;5033351;28;20057;-62
2021/08/19 01:49:49;;;;;;;19.27;15.43;;;;;;;18.65;75.17;100027.50;5033030;28;20066;-62
2021/08/19 01:52:16;;;;;;;20.60;15.98;;;;;;;18.70;74.57;100015.84;5032976;28;20054;-62
2021/08/19 01:54:44;;;;;;;19.25;16.35;;;;;;;18.78;74.37;100030.91;5033335;28;20050;-62
2021/08/19 01:57:12;;;;;;;18.80;15.10;;;;;;;18.72;74.50;100029.59;5032684;28;20064;-62
2021/08/19 01:59:39;;;;;;;16.80;14.90;;;;;;;18.70;74.94;100020.69;5032731;28;20513;-62
2021/08/19 02:02:08;;;;;;;17.92;14.93;;;;;;;18.83;74.08;100020.09;5033381;28;20054;-62
2021/08/19 02:04:36;;;;;;;18.25;16.13;;;;;;;18.94;73.82;100016.63;5033186;28;20058;-62
2021/08/19 02:07:03;;;;;;;16.33;14.63;;;;;;;18.77;74.64;100015.97;5033664;28;20053;-61
2021/08/19 02:09:31;;;;;;;18.45;14.75;;;;;;;18.80;74.42;100020.88;5033307;28;20053;-62
2021/08/19 02:11:58;;;;;;;20.13;14.50;;;;;;;18.87;74.11;100022.97;5032448;28;20053;-62
2021/08/19 02:14:25;;;;;;;21.13;15.40;;;;;;;18.90;74.61;100022.22;5032681;28;20053;-62
2021/08/19 02:16:53;;;;;;;18.70;15.02;;;;;;;18.95;74.80;100021.88;5032681;28;20053;-62
2021/08/19 02:19:22;;;;;;;18.65;14.57;;;;;;;18.86;75.26;100018.53;5033627;28;20053;-61
2021/08/19 02:21:49;;;;;;;18.58;15.40;;;;;;;18.75;75.64;100009.91;5032029;28;20409;-61
2021/08/19 02:24:16;;;;;;;19.80;15.88;;;;;;;18.93;75.17;100018.63;5031618;28;20049;-61
2021/08/19 02:26:44;;;;;;;20.80;15.52;;;;;;;18.84;75.41;100021.75;5032184;28;20056;-61
2021/08/19 02:29:11;;;;;;;19.88;15.13;;;;;;;18.72;75.91;100018.31;5032566;28;20049;-61
2021/08/19 02:31:41;;;;;;;20.98;16.00;;;;;;;18.87;75.40;100011.69;5032659;28;20057;-61
2021/08/19 02:34:09;;;;;;;26.40;17.63;;;;;;;18.82;75.80;100009.22;5032947;28;20054;-60
2021/08/19 02:36:38;;;;;;;23.00;17.67;;;;;;;18.71;76.08;100014.69;5032881;28;20080;-60
2021/08/19 02:39:06;;;;;;;19.35;16.67;;;;;;;18.78;75.91;100008.31;5032097;28;20063;-60
2021/08/19 02:41:33;;;;;;;22.52;16.85;;;;;;;18.84;75.72;100015.28;5031775;28;20133;-60
2021/08/19 02:44:00;;;;;;;22.13;17.00;;;;;;;18.93;75.83;100001.69;5036160;28;20509;-60
2021/08/19 02:46:29;;;;;;;22.67;18.58;;;;;;;18.89;76.35;100006.47;5036381;28;20054;-60
2021/08/19 02:48:56;;;;;;;26.20;19.83;;;;;;;18.69;77.31;99999.31;5036405;28;20057;-60
2021/08/19 02:51:23;;;;;;;25.63;18.85;;;;;;;18.65;76.97;100004.91;5036758;28;20050;-60
2021/08/19 02:53:52;;;;;;;26.08;20.10;;;;;;;18.80;77.09;99997.50;5036011;28;20049;-60
2021/08/19 02:56:20;;;;;;;26.60;20.13;;;;;;;18.63;77.17;99999.66;5036167;28;20060;-60
2021/08/19 02:58:47;;;;;;;30.30;21.52;;;;;;;18.70;77.21;100000.94;5036027;28;20406;-60
2021/08/19 03:01:14;;;;;;;30.85;20.30;;;;;;;18.77;77.28;99998.22;5036044;28;20061;-58
2021/08/19 03:03:41;;;;;;;27.13;21.10;;;;;;;18.74;77.78;100004.63;5036288;28;20475;-60
2021/08/19 03:06:09;;;;;;;31.52;21.15;;;;;;;18.80;77.62;99989.03;5036348;28;20053;-60
2021/08/19 03:08:36;;;;;;;30.35;21.58;;;;;;;18.75;77.36;100000.59;5035888;28;20057;-60
2021/08/19 03:11:05;;;;;;;27.55;20.40;;;;;;;18.76;77.58;100000.22;5035902;28;20076;-60
2021/08/19 03:13:33;;;;;;;27.85;21.08;;;;;;;18.72;77.47;99999.38;5036278;28;20050;-60
2021/08/19 03:16:00;;;;;;;29.33;20.88;;;;;;;18.77;77.78;99996.22;5030409;28;20050;-60
2021/08/19 03:18:28;;;;;;;27.98;20.20;;;;;;;18.82;77.54;99995.91;5016412;28;20081;-60
2021/08/19 03:20:55;;;;;;;22.27;18.40;;;;;;;18.84;76.67;99995.53;5034025;28;20148;-61
2021/08/19 03:23:23;;;;;;;29.55;19.38;;;;;;;18.83;77.09;99993.91;5035404;28;20056;-61
2021/08/19 03:25:51;;;;;;;31.88;20.80;;;;;;;18.86;76.73;99995.97;5016051;28;20530;-61
2021/08/19 03:28:23;;;;;;;30.38;20.27;;;;;;;18.83;77.35;99993.91;5016190;28;20062;-60
2021/08/19 03:30:51;;;;;;;27.42;18.95;;;;;;;18.78;77.40;99999.84;5016203;28;20049;-60
2021/08/19 03:33:18;;;;;;;26.00;18.92;;;;;;;18.66;77.46;100001.69;5016301;28;20050;-60
2021/08/19 03:35:45;;;;;;;27.73;21.02;;;;;;;18.63;78.06;99999.66;5016077;28;20506;-60
2021/08/19 03:38:13;;;;;;;33.25;21.35;;;;;;;18.59;77.91;100004.44;5018280;28;20052;-60
2021/08/19 03:40:40;;;;;;;26.88;19.42;;;;;;;18.51;78.39;99999.06;5035211;28;20092;-61
2021/08/19 03:43:07;;;;;;;25.13;19.00;;;;;;;18.66;78.11;99996.06;5035810;28;20483;-61
2021/08/19 03:45:36;;;;;;;26.92;19.55;;;;;;;18.75;77.63;99994.97;5036007;28;20053;-62
2021/08/19 03:48:04;;;;;;;25.25;19.50;;;;;;;18.65;77.43;99988.81;5035750;28;20506;-60
2021/08/19 03:50:31;;;;;;;24.50;17.80;;;;;;;18.56;77.99;99991.09;5036200;28;20501;-60
2021/08/19 03:52:58;;;;;;;22.17;17.70;;;;;;;18.64;77.15;99987.16;5034925;28;20145;-60
2021/08/19 03:55:25;;;;;;;23.52;17.77;;;;;;;18.70;77.65;99996.13;5035330;28;20057;-60
2021/08/19 03:57:53;;;;;;;23.63;17.00;;;;;;;18.65;77.44;99994.44;5035204;28;20411;-60
2021/08/19 04:00:20;;;;;;;22.52;17.58;;;;;;;18.46;78.24;99998.19;5035073;28;20490;-59
2021/08/19 04:02:51;;;;;;;21.30;16.10;;;;;;;18.52;78.13;99997.84;5035189;28;20065;-60
2021/08/19 04:05:19;;;;;;;24.17;18.05;;;;;;;18.56;78.23;99993.09;5035084;28;20049;-60
2021/08/19 04:07:46;;;;;;;22.30;18.13;;;;;;;18.64;77.96;99997.63;5035146;28;20057;-60
2021/08/19 04:10:14;;;;;;;25.42;17.70;;;;;;;18.73;78.00;99997.34;5035169;28;20053;-60
2021/08/19 04:12:41;;;;;;;27.50;18.80;;;;;;;18.71;78.18;99991.28;5035074;28;20490;-60
2021/08/19 04:15:10;;;;;;;25.42;18.70;;;;;;;18.58;78.74;99988.72;5034670;28;20053;-60
2021/08/19 04:17:38;;;;;;;27.25;18.80;;;;;;;18.73;77.96;99994.53;5034733;28;20056;-60
2021/08/19 04:20:08;;;;;;;25.58;18.65;;;;;;;18.74;77.82;99999.00;5034477;28;20053;-60
2021/08/19 04:22:35;;;;;;;27.13;18.17;;;;;;;18.73;78.58;99988.88;5034950;28;20049;-61
2021/08/19 04:25:03;;;;;;;28.27;18.48;;;;;;;18.75;78.53;99998.63;5034471;28;20057;-60
2021/08/19 04:27:30;;;;;;;27.15;19.15;;;;;;;18.79;78.59;99996.69;5034673;28;20053;-61
2021/08/19 04:29:58;;;;;;;27.73;19.88;;;;;;;18.84;78.44;99995.53;5034618;28;20053;-60
2021/08/19 04:32:25;;;;;;;28.27;19.55;;;;;;;18.84;78.61;99996.34;5034530;28;20060;-59
2021/08/19 04:34:52;;;;;;;29.85;20.52;;;;;;;18.91;78.56;100000.47;5034492;28;20050;-60
2021/08/19 04:37:21;;;;;;;33.42;21.15;;;;;;;18.91;78.75;100006.09;5034224;28;20383;-60
2021/08/19 04:39:48;;;;;;;34.27;23.00;;;;;;;18.94;78.21;99994.88;5034404;28;20045;-60
2021/08/19 04:42:16;;;;;;;28.63;19.60;;;;;;;18.94;77.86;99997.69;5034235;28;20049;-60
2021/08/19 04:44:43;;;;;;;28.13;20.35;;;;;;;18.91;78.01;100000.47;5034153;28;20053;-60
2021/08/19 04:47:11;;;;;;;26.60;17.70;;;;;;;18.94;77.97;99997.69;5034488;28;20049;-60
2021/08/19 04:49:38;;;;;;;19.95;13.88;;;;;;;18.86;77.63;99998.78;5034089;28;20486;-60
2021/08/19 04:52:05;;;;;;;16.23;11.90;;;;;;;18.90;77.17;100005.31;5034288;28;20061;-61
2021/08/19 04:54:34;;;;;;;13.98;10.52;;;;;;;18.92;76.70;99996.44;5018555;28;20383;-60
2021/08/19 04:57:02;;;;;;;12.50;9.85;;;;;;;18.76;76.75;100005.88;5014586;28;20050;-61
2021/08/19 04:59:29;;;;;;;12.90;10.43;;;;;;;18.86;76.44;99999.59;5014685;28;20054;-60
2021/08/19 05:01:57;;;;;;;14.95;10.40;;;;;;;18.82;76.62;99998.75;5014297;28;20065;-59
2021/08/19 05:04:25;;;;;;;13.35;11.10;;;;;;;18.82;76.43;100003.56;5013779;28;20514;-60
2021/08/19 05:06:53;;;;;;;15.15;11.25;;;;;;;18.76;76.82;99999.44;5014054;28;20050;-61
2021/08/19 05:09:20;;;;;;;14.68;10.85;;;;;;;18.84;76.51;100010.47;5029910;28;20072;-60
2021/08/19 05:11:49;;;;;;;15.13;11.30;;;;;;;18.83;76.56;100006.00;5027081;28;20076;-61
2021/08/19 05:14:16;;;;;;;15.48;12.48;;;;;;;18.64;76.94;99997.63;5025886;28;20049;-61
2021/08/19 05:16:44;;;;;;;18.40;13.32;;;;;;;18.76;77.06;99999.44;5027695;28;20103;-59
2021/08/19 05:19:11;;;;;;;20.33;14.50;;;;;;;18.82;77.31;99997.94;5016160;28;20061;-60
2021/08/19 05:21:40;;;;;;;20.02;14.00;;;;;;;18.93;76.69;99996.06;5016164;28;20058;-59
2021/08/19 05:24:08;;;;;;;21.20;14.32;;;;;;;18.90;76.79;100005.31;5020720;28;20049;-61
2021/08/19 05:26:35;;;;;;;21.77;15.20;;;;;;;18.77;77.40;100006.69;5033010;28;20056;-60
2021/08/19 05:29:05;;;;;;;22.60;15.80;;;;;;;18.84;76.66;100006.81;5033107;28;20060;-61
2021/08/19 05:31:32;;;;;;;25.45;16.17;;;;;;;18.73;77.69;100000.16;5033686;28;20498;-61
2021/08/19 05:34:05;;;;;;;22.00;16.67;;;;;;;18.73;77.58;100012.28;5033173;28;20053;-60
2021/08/19 05:36:32;;;;;;;29.30;17.67;;;;;;;18.80;77.37;100018.06;5032981;28;20056;-61
2021/08/19 05:39:00;;;;;;;26.50;18.15;;;;;;;18.89;77.10;100014.94;5032948;28;20062;-61
2021/08/19 05:41:27;;;;;;;26.58;17.52;;;;;;;18.88;77.17;100012.50;5033090;28;20057;-61
2021/08/19 05:43:54;;;;;;;29.15;18.58;;;;;;;18.83;77.14;100011.63;5032710;28;20049;-61
2021/08/19 05:46:23;;;;;;;23.55;16.58;;;;;;;18.82;76.98;100020.50;5033149;28;20046;-60
2021/08/19 05:48:50;;;;;;;25.20;17.35;;;;;;;18.87;76.64;100020.16;5030108;28;20052;-60
2021/08/19 05:51:18;;;;;;;23.70;15.90;;;;;;;18.81;76.45;100011.19;5032973;28;20064;-61
2021/08/19 05:53:45;;;;;;;22.98;17.02;;;;;;;18.81;76.15;100021.69;5032656;28;20422;-60
2021/08/19 05:56:12;;;;;;;24.90;16.83;;;;;;;18.87;75.75;100022.97;5028994;28;20088;-60
2021/08/19 05:58:40;;;;;;;23.20;15.43;;;;;;;18.50;77.18;100026.47;5040077;28;20053;-60
2021/08/19 06:01:08;;;;;;;20.17;15.32;;;;;;;18.57;76.81;100026.56;5052354;28;20056;-61
2021/08/19 06:03:37;;;;;;;20.65;14.75;;;;;;;18.60;76.69;100027.78;5034181;28;20053;-60
2021/08/19 06:06:04;;;;;;;23.38;16.00;;;;;;;18.69;76.34;100021.88;5030409;28;21250;-60
2021/08/19 06:08:32;;;;;;;20.30;14.63;;;;;;;18.66;76.78;100038.38;5031820;28;20053;-60
2021/08/19 06:10:59;;;;;;;19.98;14.77;;;;;;;18.72;76.08;100038.06;5032414;28;20064;-59
2021/08/19 06:13:26;;;;;;;19.23;14.20;;;;;;;18.46;76.66;100028.41;5030423;28;20049;-59
2021/08/19 06:15:54;;;;;;;21.25;15.43;;;;;;;18.45;77.22;100032.41;5021438;28;20046;-61
2021/08/19 06:18:21;;;;;;;22.83;14.55;;;;;;;18.53;76.54;100028.50;5031453;28;20076;-60
2021/08/19 06:20:50;;;;;;;19.90;14.55;;;;;;;18.48;77.33;100040.13;5026692;28;20053;-59
2021/08/19 06:23:17;;;;;;;20.48;15.43;;;;;;;18.56;76.90;100035.38;5032258;28;20057;-61
2021/08/19 06:25:45;;;;;;;19.38;13.77;;;;;;;18.47;77.33;100030.03;5031057;28;20416;-61
2021/08/19 06:28:12;;;;;;;18.77;14.30;;;;;;;18.54;76.97;100026.50;5013296;28;20133;-61
2021/08/19 06:30:39;;;;;;;18.95;13.70;;;;;;;18.54;76.68;100032.97;5025027;28;20053;-61
2021/08/19 06:33:07;;;;;;;18.67;14.45;;;;;;;18.28;77.45;100038.59;5048567;28;20059;-61
2021/08/19 06:35:35;;;;;;;18.65;14.13;;;;;;;18.30;77.23;100044.66;5051413;28;20056;-61
2021/08/19 06:38:03;;;;;;;19.73;14.73;;;;;;;18.52;76.72;100040.16;5012717;28;20054;-60
2021/08/19 06:40:31;;;;;;;20.30;14.57;;;;;;;18.49;76.33;100047.38;5017529;28;20054;-61
2021/08/19 06:42:58;;;;;;;15.95;13.35;;;;;;;18.60;75.91;100054.00;5032640;28;20053;-60
2021/08/19 06:45:25;;;;;;;17.17;13.45;;;;;;;18.66;75.52;100048.84;5032333;28;20056;-60
2021/08/19 06:47:52;;;;;;;19.25;14.65;;;;;;;18.72;75.05;100055.78;5031610;28;20072;-61
2021/08/19 06:50:20;;;;;;;16.90;13.82;;;;;;;18.59;75.54;100058.03;5032459;28;20065;-60
2021/08/19 06:52:47;;;;;;;19.20;14.43;;;;;;;18.43;76.17;100051.72;5032589;28;20057;-59
2021/08/19 06:55:16;;;;;;;17.77;14.23;;;;;;;18.52;75.38;100052.28;5032367;28;20061;-60
2021/08/19 06:57:43;;;;;;;18.13;13.57;;;;;;;18.42;75.87;100053.72;5032281;28;20053;-60
2021/08/19 07:00:11;;;;;;;19.30;14.90;;;;;;;18.70;74.99;100052.53;5032203;28;20054;-60
2021/08/19 07:02:39;;;;;;;18.10;13.85;;;;;;;18.82;74.25;100055.16;5032375;28;20061;-60
2021/08/19 07:05:08;;;;;;;18.00;13.20;;;;;;;18.90;73.87;100058.91;5033127;28;20432;-59
2021/08/19 07:07:35;;;;;;;17.02;12.95;;;;;;;18.97;73.62;100053.38;5032646;28;20065;-61
2021/08/19 07:10:04;;;;;;;18.05;12.65;;;;;;;18.99;73.34;100053.78;5029622;28;20501;-60
2021/08/19 07:12:32;;;;;;;16.15;13.35;;;;;;;19.01;73.49;100056.25;5025020;28;20418;-60
2021/08/19 07:15:00;;;;;;;15.02;13.13;;;;;;;18.97;73.41;100058.19;5030009;28;20414;-60
2021/08/19 07:17:27;;;;;;;16.13;12.70;;;;;;;19.00;73.16;100063.91;5029412;28;20046;-61
2021/08/19 07:19:55;;;;;;;15.38;12.68;;;;;;;19.06;72.88;100053.88;5029525;28;20062;-59
2021/08/19 07:22:22;;;;;;;17.25;12.15;;;;;;;19.12;72.28;100050.75;5024069;28;20490;-59
2021/08/19 07:24:49;;;;;;;16.17;12.88;;;;;;;19.14;71.91;100048.34;5029449;28;20061;-61
2021/08/19 07:27:16;;;;;;;16.10;12.38;;;;;;;19.06;72.38;100062.34;5029814;28;20060;-61
2021/08/19 07:29:45;;;;;;;15.43;11.68;;;;;;;19.11;72.09;100055.59;5032672;28;20521;-60
2021/08/19 07:32:15;;;;;;;14.40;10.85;;;;;;;19.02;72.28;100055.88;5033868;28;20049;-61
2021/08/19 07:34:42;;;;;;;15.82;12.05;;;;;;;19.11;71.60;100054.75;5033165;28;20499;-61
2021/08/19 07:37:09;;;;;;;14.35;11.85;;;;;;;19.15;71.95;100047.13;5033144;28;20065;-61
2021/08/19 07:39:37;;;;;;;15.50;12.00;;;;;;;19.00;72.09;100055.44;5032648;28;20045;-61
2021/08/19 07:42:04;;;;;;;12.00;10.75;;;;;;;19.10;72.35;100062.41;5033066;28;20064;-61
2021/08/19 07:44:32;;;;;;;15.93;11.45;;;;;;;19.18;71.23;100072.59;5033325;28;20068;-60
2021/08/19 07:47:01;;;;;;;13.77;11.77;;;;;;;19.21;71.16;100073.84;5032693;28;20061;-61
2021/08/19 07:49:28;;;;;;;13.43;10.70;;;;;;;18.88;71.89;100068.94;5033392;28;20494;-61
2021/08/19 07:51:55;;;;;;;14.27;11.45;;;;;;;18.65;73.05;100070.59;5031701;28;20495;-61
2021/08/19 07:54:22;;;;;;;15.75;11.55;;;;;;;18.79;72.75;100077.69;5033264;28;20068;-61
2021/08/19 07:56:50;;;;;;;15.55;11.38;;;;;;;18.99;72.10;100082.03;5025206;28;20390;-61
2021/08/19 07:59:17;;;;;;;19.33;12.40;;;;;;;19.04;71.82;100072.41;5028627;28;20065;-60
2021/08/19 08:01:44;;;;;;;14.50;10.73;;;;;;;19.15;71.48;100083.84;5032101;28;20540;-59
2021/08/19 08:04:13;;;;;;;14.48;10.75;;;;;;;19.40;69.62;100084.16;5033191;28;20430;-59
2021/08/19 08:06:41;;;;;;;15.85;12.07;;;;;;;19.33;69.96;100075.63;5032376;28;20054;-60
2021/08/19 08:09:09;;;;;;;14.60;11.82;;;;;;;19.23;70.33;100080.75;5025149;28;20054;-61
2021/08/19 08:11:36;;;;;;;15.95;11.73;;;;;;;19.37;69.98;100080.09;5032449;28;20060;-61
2021/08/19 08:14:03;;;;;;;18.63;13.32;;;;;;;19.23;70.47;100082.75;5032285;28;20049;-61
2021/08/19 08:16:31;;;;;;;16.73;13.07;;;;;;;19.35;70.43;100085.34;5032276;28;20478;-61
2021/08/19 08:19:01;;;;;;;14.20;11.43;;;;;;;19.27;70.09;100089.25;5032228;28;20076;-61
2021/08/19 08:21:30;;;;;;;16.52;11.57;;;;;;;19.62;68.80;100077.59;5031356;28;20053;-59
2021/08/19 08:23:58;;;;;;;13.07;10.55;;;;;;;19.93;68.02;100084.03;5031431;28;20053;-59
2021/08/19 08:26:26;;;;;;;12.65;11.25;;;;;;;19.87;68.02;100086.38;5032274;28;20053;-59
2021/08/19 08:28:54;;;;;;;17.88;12.40;;;;;;;19.60;68.50;100088.47;5032905;28;20073;-60
2021/08/19 08:31:21;;;;;;;13.40;10.52;;;;;;;19.81;68.38;100089.94;5032348;28;20119;-60
2021/08/19 08:33:50;;;;;;;18.33;14.25;;;;;;;19.98;67.77;100091.34;5032670;28;20400;-60
2021/08/19 08:36:18;;;;;;;15.43;11.43;;;;;;;19.95;67.15;100100.56;5032795;28;20060;-59
2021/08/19 08:38:47;;;;;;;13.85;10.73;;;;;;;20.18;67.14;100092.75;5031904;28;20045;-60
2021/08/19 08:41:19;;;;;;;17.60;12.38;;;;;;;20.26;66.93;100090.78;5031488;28;20064;-59
2021/08/19 08:43:47;;;;;;;13.68;11.70;;;;;;;20.37;66.27;100094.56;5031697;28;20072;-60
2021/08/19 08:46:17;;;;;;;16.92;12.45;;;;;;;20.12;66.52;100091.50;5030786;28;20410;-60
2021/08/19 08:48:46;;;;;;;16.50;11.75;;;;;;;20.20;66.25;100093.19;5032184;28;20112;-59
2021/08/19 08:51:13;;;;;;;13.73;11.18;;;;;;;20.32;65.72;100094.09;5031717;28;20375;-60
2021/08/19 08:53:42;;;;;;;13.77;11.70;;;;;;;20.45;65.94;100099.06;5032817;28;20053;-60
2021/08/19 08:56:11;;;;;;;15.00;12.52;;;;;;;20.62;65.28;100097.63;5024178;28;20076;-60
2021/08/19 08:58:39;;;;;;;15.93;11.00;;;;;;;20.52;65.01;100092.66;5031971;28;20053;-60
2021/08/19 09:01:07;;;;;;;12.30;10.20;;;;;;;20.50;65.38;100100.72;5031211;28;20069;-59
2021/08/19 09:03:34;;;;;;;13.38;9.98;;;;;;;20.58;64.88;100102.44;5031388;28;20058;-60
2021/08/19 09:06:02;;;;;;;15.05;9.85;;;;;;;20.67;64.58;100105.72;5031336;28;20065;-58
2021/08/19 09:08:29;;;;;;;12.07;9.93;;;;;;;20.57;64.68;100103.59;5030575;28;20053;-59
2021/08/19 09:10:58;;;;;;;12.23;9.50;;;;;;;20.94;63.62;100101.91;5031877;28;20049;-59
2021/08/19 09:13:28;;;;;;;12.45;9.13;;;;;;;21.29;62.82;100109.78;5032381;28;20053;-59
2021/08/19 09:16:12;;;;;;;11.48;9.50;;;;;;;21.27;62.51;100112.19;5031351;28;20049;-61
2021/08/19 09:18:40;;;;;;;11.32;9.02;;;;;;;21.22;63.44;100110.53;5032296;28;20065;-59
2021/08/19 09:21:18;;;;;;;13.05;9.38;;;;;;;21.30;62.39;100114.25;5031670;28;20404;-60
2021/08/19 09:23:46;;;;;;;12.55;9.05;;;;;;;20.68;64.46;100115.88;5031784;28;20049;-60
2021/08/19 09:26:27;;;;;;;13.55;9.68;;;;;;;21.12;63.46;100107.66;5032295;28;20062;-60
2021/08/19 09:29:15;;;;;;;13.70;10.32;;;;;;;21.13;64.17;100114.97;5032167;28;20053;-59
2021/08/19 09:31:43;;;;;;;13.63;11.07;;;;;;;20.92;64.38;100116.44;5031920;28;20050;-60
2021/08/19 09:34:11;;;;;;;14.95;11.38;;;;;;;20.94;64.63;100118.88;5032112;28;20521;-58
2021/08/19 09:36:39;;;;;;;13.40;10.40;;;;;;;21.16;63.86;100119.81;5031780;28;20050;-60
2021/08/19 09:39:07;;;;;;;13.48;10.98;;;;;;;21.18;63.79;100111.75;5031471;28;20057;-60
2021/08/19 09:41:50;;;;;;;11.48;9.65;;;;;;;21.15;64.11;100113.34;5031608;28;20064;-60
2021/08/19 09:44:31;;;;;;;12.98;10.07;;;;;;;21.19;64.50;100121.88;5024489;28;20056;-60
2021/08/19 09:46:59;;;;;;;15.65;11.05;;;;;;;21.19;64.48;100108.53;5030897;28;20064;-60
2021/08/19 09:49:29;;;;;;;14.85;11.05;;;;;;;21.14;64.99;100119.41;5030800;28;20069;-60
2021/08/19 09:52:04;;;;;;;13.27;11.52;;;;;;;21.39;64.93;100114.69;5030664;28;20054;-60
2021/08/19 09:54:34;;;;;;;14.60;11.57;;;;;;;21.68;64.25;100109.97;5031211;28;20053;-60
2021/08/19 09:57:01;;;;;;;13.77;11.80;;;;;;;21.74;65.79;100101.91;5030152;28;20429;-57
2021/08/19 09:59:34;;;;;;;15.10;12.48;;;;;;;21.59;66.10;100108.75;5030515;28;20053;-60
2021/08/19 10:02:03;;;;;;;13.77;11.63;;;;;;;21.62;65.62;100108.75;5030171;28;20426;-60
2021/08/19 10:04:30;;;;;;;15.57;11.50;;;;;;;21.47;64.86;100113.53;5030951;28;20437;-59
2021/08/19 10:06:59;;;;;;;13.40;11.70;;;;;;;21.18;64.49;100120.25;5030056;28;20061;-60
2021/08/19 10:09:26;;;;;;;16.17;12.63;;;;;;;20.73;67.45;100114.69;5030569;28;20061;-58
2021/08/19 10:11:55;;;;;;;21.20;14.98;;;;;;;20.53;69.64;100110.44;5031156;28;20494;-59
2021/08/19 10:14:25;;;;;;;20.13;15.70;;;;;;;20.44;71.00;100119.25;5031475;28;20057;-59
2021/08/19 10:16:55;;;;;;;21.02;15.32;;;;;;;20.14;71.34;100113.69;5029294;28;20057;-59
2021/08/19 10:19:32;;;;;;;25.45;16.88;;;;;;;20.33;70.82;100124.03;5031641;28;20061;-59
2021/08/19 10:22:04;;;;;;;24.80;17.23;;;;;;;20.47;70.37;100112.81;5031282;28;20390;-60
2021/08/19 10:24:35;;;;;;;25.33;17.02;;;;;;;20.56;70.36;100102.00;5030498;28;20486;-59
2021/08/19 10:27:20;;;;;;;20.77;15.95;;;;;;;20.18;71.06;100112.56;5030541;28;20057;-60
2021/08/19 10:29:51;;;;;;;20.95;15.35;;;;;;;20.61;69.70;100110.13;5030300;28;20057;-60
2021/08/19 10:32:36;;;;;;;21.30;15.73;;;;;;;20.25;69.94;100112.63;5028180;28;20049;-60
2021/08/19 10:35:10;;;;;;;20.30;15.45;;;;;;;20.11;70.91;100111.66;5030525;28;20053;-59
2021/08/19 10:38:03;;;;;;;20.13;15.70;;;;;;;20.13;69.26;100114.91;5032746;28;20052;-60
2021/08/19 10:40:36;;;;;;;19.15;15.07;;;;;;;20.23;70.16;100109.38;5028729;28;20053;-59
2021/08/19 10:43:42;;;;;;;18.88;14.18;;;;;;;20.19;69.04;100113.38;5032133;28;20049;-59
2021/08/19 10:46:11;;;;;;;18.17;13.43;;;;;;;20.21;69.15;100108.13;5029428;28;20505;-60
2021/08/19 10:48:53;;;;;;;17.50;13.80;;;;;;;20.37;68.24;100102.19;5030102;28;20053;-59
2021/08/19 10:51:23;;;;;;;19.92;14.52;;;;;;;20.54;69.42;100107.22;5028817;28;20398;-60
2021/08/19 10:53:51;;;;;;;17.77;13.68;;;;;;;20.18;69.87;100111.72;5029701;28;20064;-59
2021/08/19 10:56:41;;;;;;;18.05;14.95;;;;;;;20.31;69.44;100120.75;5034764;28;20410;-59
2021/08/19 10:59:29;;;;;;;18.48;15.10;;;;;;;20.76;68.23;100119.53;5028784;28;20057;-59
2021/08/19 11:01:56;;;;;;;18.70;15.18;;;;;;;20.93;68.16;100112.38;4988810;28;20054;-59
2021/08/19 11:04:46;;;;;;;18.27;14.70;;;;;;;20.73;67.85;100119.53;4991053;28;20054;-59
2021/08/19 11:07:47;;;;;;;18.20;14.15;;;;;;;20.97;67.64;100120.91;4999558;28;20062;-59
2021/08/19 11:10:27;;;;;;;20.23;13.18;;;;;;;21.13;65.30;100115.75;4997857;28;20054;-59
2021/08/19 11:12:54;;;;;;;17.45;13.25;;;;;;;21.80;64.12;100113.69;4995085;28;20058;-56
2021/08/19 11:15:22;;;;;;;14.55;11.57;;;;;;;22.17;62.03;100110.50;4990756;28;20054;-59
2021/08/19 11:17:54;;;;;;;17.55;12.98;;;;;;;22.61;60.83;100106.53;4993180;28;20061;-60
2021/08/19 11:20:37;;;;;;;13.73;11.00;;;;;;;23.36;58.58;100105.63;4994561;28;20073;-59